Resistencia, Resistencia International Airport (SARE)

NameResistencia International Airport
CityResistencia
CountryArgentina
ICAOSARE
IATARES
Altitude52 m
CoordinatesGoogle Map
Live Air TrafficLiveATC.net
METARSARE 251700Z 36010KT 320V020 8000 FEW030 35/18 Q1011
2020-04-25 17:00:00 Wind: North (360°) 5.14 m/s - Visibility: 8000 m - Temperature: 35 °C - Dew point: 18 °C - Humidity: 36.5% - Pressure: 1011 hPa
Statistics

The table below shows the detailed information of all flights to/from Resistencia, Resistencia International Airport (SARE).